createdAt,value
2019-02-08T00:00:50.760Z,31.42
2019-02-08T00:03:20.187Z,29.45
2019-02-08T00:05:49.547Z,30.95
2019-02-08T00:08:19.026Z,32.00
2019-02-08T00:10:48.460Z,32.58
2019-02-08T00:13:17.894Z,30.60
2019-02-08T00:15:47.269Z,30.52
2019-02-08T00:18:16.689Z,28.70
2019-02-08T00:20:46.093Z,29.15
2019-02-08T00:23:26.017Z,29.05
2019-02-08T00:25:46.505Z,28.10
2019-02-08T00:28:15.866Z,28.67
2019-02-08T00:30:45.250Z,29.42
2019-02-08T00:33:14.651Z,28.67
2019-02-08T00:35:44.001Z,29.07
2019-02-08T00:38:13.375Z,28.50
2019-02-08T00:40:42.894Z,28.92
2019-02-08T00:43:12.259Z,28.87
2019-02-08T00:45:41.655Z,28.83
2019-02-08T00:48:11.090Z,26.73
2019-02-08T00:50:40.484Z,26.75
2019-02-08T00:53:09.831Z,26.35
2019-02-08T00:55:39.633Z,27.45
2019-02-08T00:58:09.004Z,27.45
2019-02-08T01:00:38.365Z,27.77
2019-02-08T01:03:07.787Z,27.52
2019-02-08T01:05:37.152Z,25.82
2019-02-08T01:08:06.511Z,26.62
2019-02-08T01:10:35.952Z,26.23
2019-02-08T01:13:05.292Z,25.65
2019-02-08T01:15:34.660Z,26.17
2019-02-08T01:18:04.103Z,28.27
2019-02-08T01:20:33.450Z,26.40
2019-02-08T01:23:02.832Z,26.95
2019-02-08T01:25:33.307Z,26.95
2019-02-08T01:28:02.694Z,27.22
2019-02-08T01:30:33.095Z,27.98
2019-02-08T01:33:02.545Z,27.00
2019-02-08T01:35:31.895Z,25.50
2019-02-08T01:38:01.536Z,26.57
2019-02-08T01:40:36.467Z,26.85
2019-02-08T01:43:07.174Z,26.10
2019-02-08T01:45:36.626Z,25.88
2019-02-08T01:48:07.786Z,25.70
2019-02-08T01:50:37.169Z,26.25
2019-02-08T01:53:06.839Z,26.35
2019-02-08T01:55:36.253Z,25.23
2019-02-08T01:58:05.625Z,25.77
2019-02-08T02:00:40.022Z,25.97
2019-02-08T02:03:10.207Z,25.57
2019-02-08T02:05:39.583Z,26.12
2019-02-08T02:08:09.054Z,25.75
2019-02-08T02:10:40.558Z,25.17
2019-02-08T02:13:10.251Z,25.57
2019-02-08T02:15:39.688Z,24.32
2019-02-08T02:18:09.607Z,24.72
2019-02-08T02:20:41.070Z,25.80
2019-02-08T02:23:12.172Z,23.38
2019-02-08T02:25:41.565Z,24.95
2019-02-08T02:28:10.975Z,25.77
2019-02-08T02:30:40.336Z,27.73
2019-02-08T02:33:11.644Z,28.67
2019-02-08T02:35:41.383Z,25.08
2019-02-08T02:38:10.855Z,28.07
2019-02-08T02:40:40.247Z,26.87
2019-02-08T02:43:09.735Z,26.07
2019-02-08T02:45:40.369Z,26.80
2019-02-08T02:48:11.484Z,27.02
2019-02-08T02:50:40.926Z,26.02
2019-02-08T02:53:10.350Z,27.13
2019-02-08T02:55:39.748Z,24.72
2019-02-08T02:58:09.137Z,25.48
2019-02-08T03:00:43.934Z,25.32
2019-02-08T03:03:13.851Z,27.25
2019-02-08T03:05:43.224Z,26.85
2019-02-08T03:08:13.981Z,25.62
2019-02-08T03:10:43.341Z,25.17
2019-02-08T03:13:13.487Z,25.32
2019-02-08T03:15:42.948Z,25.60
2019-02-08T03:18:12.381Z,25.27
2019-02-08T03:20:42.085Z,24.55
2019-02-08T03:23:11.533Z,24.25
2019-02-08T03:25:41.015Z,22.50
2019-02-08T03:28:10.358Z,23.12
2019-02-08T03:30:41.404Z,21.82
2019-02-08T03:33:10.766Z,22.40
2019-02-08T03:35:40.152Z,23.60
2019-02-08T03:38:09.553Z,21.75
2019-02-08T03:40:38.929Z,20.55
2019-02-08T03:43:08.480Z,18.73
2019-02-08T03:45:39.622Z,19.23
2019-02-08T03:48:10.400Z,19.45
2019-02-08T03:50:39.774Z,19.75
2019-02-08T03:53:09.683Z,21.37
2019-02-08T03:55:39.416Z,23.57
2019-02-08T03:58:08.767Z,22.58
2019-02-08T04:00:39.821Z,24.30
2019-02-08T04:03:09.251Z,23.70
2019-02-08T04:05:38.622Z,24.60
2019-02-08T04:08:08.082Z,23.60
2019-02-08T04:10:37.446Z,21.35
2019-02-08T04:13:06.815Z,23.05
2019-02-08T04:15:36.349Z,22.07
2019-02-08T04:18:05.783Z,23.95
2019-02-08T04:20:35.164Z,21.12
2019-02-08T04:23:04.583Z,22.37
2019-02-08T04:25:33.955Z,23.02
2019-02-08T04:28:03.348Z,21.12
2019-02-08T04:30:33.362Z,22.55
2019-02-08T04:33:03.263Z,20.92
2019-02-08T04:35:33.237Z,21.65
2019-02-08T04:38:02.669Z,20.35
2019-02-08T04:40:32.029Z,20.77
2019-02-08T04:43:01.410Z,20.50
2019-02-08T04:45:30.837Z,22.22
2019-02-08T04:48:00.270Z,20.50
2019-02-08T04:50:30.042Z,20.92
2019-02-08T04:52:59.452Z,21.73
2019-02-08T04:55:28.829Z,20.55
2019-02-08T04:57:58.198Z,21.75
2019-02-08T05:00:36.524Z,23.15
2019-02-08T05:03:06.461Z,23.92
2019-02-08T05:05:35.834Z,25.15
2019-02-08T05:08:05.312Z,26.97
2019-02-08T05:10:35.256Z,24.95
2019-02-08T05:13:04.801Z,24.67
2019-02-08T05:15:34.239Z,23.80
2019-02-08T05:18:03.601Z,25.57
2019-02-08T05:20:32.990Z,22.20
2019-02-08T05:23:02.408Z,23.80
2019-02-08T05:25:31.803Z,24.20
2019-02-08T05:28:01.163Z,24.02
2019-02-08T05:30:35.746Z,23.30
2019-02-08T05:33:06.458Z,24.40
2019-02-08T05:35:35.817Z,25.40
2019-02-08T05:38:05.252Z,24.20
2019-02-08T05:40:34.621Z,24.45
2019-02-08T05:43:05.563Z,22.05
2019-02-08T05:45:34.973Z,24.05
2019-02-08T05:48:04.634Z,22.32
2019-02-08T05:50:34.001Z,23.02
2019-02-08T05:53:03.390Z,21.68
2019-02-08T05:55:33.036Z,22.70
2019-02-08T05:58:02.391Z,22.27
2019-02-08T06:00:36.225Z,22.52
2019-02-08T06:03:07.171Z,22.27
2019-02-08T06:05:37.103Z,23.67
2019-02-08T06:08:07.555Z,25.12
2019-02-08T06:10:36.920Z,26.73
2019-02-08T06:13:07.651Z,24.75
2019-02-08T06:15:37.327Z,25.77
2019-02-08T06:18:08.023Z,24.47
2019-02-08T06:20:37.590Z,23.55
2019-02-08T06:23:07.359Z,25.27
2019-02-08T06:25:36.724Z,24.32
2019-02-08T06:28:06.312Z,25.08
2019-02-08T06:30:35.767Z,25.60
2019-02-08T06:33:05.300Z,24.50
2019-02-08T06:35:34.687Z,24.52
2019-02-08T06:38:04.093Z,25.75
2019-02-08T06:40:36.182Z,25.82
2019-02-08T06:43:06.171Z,27.80
2019-02-08T06:45:35.581Z,26.40
2019-02-08T06:48:06.706Z,26.27
2019-02-08T06:50:36.095Z,26.65
2019-02-08T06:53:05.878Z,27.40
2019-02-08T06:55:35.286Z,25.90
2019-02-08T06:58:07.698Z,23.92
2019-02-08T07:00:50.489Z,24.65
2019-02-08T07:03:27.793Z,24.02
2019-02-08T07:06:13.664Z,24.52
2019-02-08T07:08:50.420Z,23.25
2019-02-08T07:11:24.105Z,23.27
2019-02-08T07:14:03.982Z,18.02
2019-02-08T07:16:41.191Z,21.97
2019-02-08T07:19:12.218Z,23.87
2019-02-08T07:21:49.202Z,23.75
2019-02-08T07:24:29.492Z,23.85
2019-02-08T07:27:03.439Z,23.83
2019-02-08T07:29:34.488Z,24.77
2019-02-08T07:32:08.504Z,26.87
2019-02-08T07:34:48.586Z,26.82
2019-02-08T07:37:19.601Z,26.85
2019-02-08T07:40:03.158Z,25.95
2019-02-08T07:42:43.330Z,28.65
2019-02-08T07:45:14.980Z,28.32
2019-02-08T07:47:48.815Z,30.68
2019-02-08T07:50:22.820Z,29.02
2019-02-08T07:52:59.645Z,28.92
2019-02-08T07:55:30.693Z,27.73
2019-02-08T07:58:04.577Z,30.32
2019-02-08T08:00:44.496Z,29.12
2019-02-08T08:03:15.554Z,28.45
2019-02-08T08:05:55.788Z,28.00
2019-02-08T08:08:29.670Z,28.87
2019-02-08T08:11:00.718Z,29.15
2019-02-08T08:13:47.711Z,27.17
2019-02-08T08:16:21.457Z,30.52
2019-02-08T08:18:52.460Z,29.57
2019-02-08T08:21:23.520Z,28.87
2019-02-08T08:23:57.074Z,28.38
2019-02-08T08:29:06.908Z,26.97
2019-02-08T08:31:47.143Z,27.67
2019-02-08T08:34:40.940Z,27.17
2019-02-08T08:37:13.651Z,28.83
2019-02-08T08:40:04.288Z,27.20
2019-02-08T08:42:48.701Z,27.27
2019-02-08T08:45:24.038Z,25.90
2019-02-08T08:48:05.867Z,27.35
2019-02-08T08:50:46.846Z,25.57
2019-02-08T08:53:37.809Z,26.75
2019-02-08T08:56:30.249Z,25.12
2019-02-08T08:59:19.434Z,24.95
2019-02-08T09:02:14.976Z,26.65
2019-02-08T09:04:50.287Z,25.92
2019-02-08T09:07:39.296Z,26.05
2019-02-08T09:10:34.546Z,26.68
2019-02-08T09:13:14.670Z,26.50
2019-02-08T09:16:06.483Z,27.75
2019-02-08T09:18:47.874Z,28.02
2019-02-08T09:21:40.304Z,28.75
2019-02-08T09:24:27.919Z,27.93
2019-02-08T09:27:21.459Z,29.65
2019-02-08T09:29:59.933Z,27.15
2019-02-08T09:32:40.987Z,28.50
2019-02-08T09:35:46.905Z,32.67
2019-02-08T09:38:37.488Z,27.52
2019-02-08T09:41:15.924Z,26.87
2019-02-08T09:44:00.560Z,29.42
2019-02-08T09:46:42.249Z,27.40
2019-02-08T09:49:34.722Z,25.88
2019-02-08T09:52:27.177Z,25.37
2019-02-08T09:55:18.302Z,27.37
2019-02-08T09:57:59.743Z,30.23
2019-02-08T10:01:01.359Z,31.73
2019-02-08T10:03:50.062Z,32.40
2019-02-08T10:06:40.602Z,35.55
2019-02-08T10:09:34.172Z,36.13
2019-02-08T10:12:23.340Z,33.92
2019-02-08T10:15:04.742Z,35.15
2019-02-08T10:18:01.944Z,38.60
2019-02-08T10:20:40.317Z,33.67
2019-02-08T10:23:31.171Z,33.90
2019-02-08T10:26:12.422Z,33.13
2019-02-08T10:29:08.004Z,35.40
2019-02-08T10:31:55.289Z,36.50
2019-02-08T10:34:53.797Z,35.80
2019-02-08T10:38:00.066Z,33.78
2019-02-08T10:40:51.820Z,36.90
2019-02-08T10:43:48.920Z,37.23
2019-02-08T10:46:47.007Z,37.45
2019-02-08T10:49:52.840Z,38.00
2019-02-08T10:52:42.020Z,37.70
2019-02-08T10:55:26.522Z,41.35
2019-02-08T10:58:31.224Z,39.67
2019-02-08T11:01:41.666Z,37.95
2019-02-08T11:04:27.629Z,43.25
2019-02-08T11:07:29.057Z,42.15
2019-02-08T11:10:32.329Z,39.23
2019-02-08T11:13:13.202Z,39.23
2019-02-08T11:16:08.464Z,38.10
2019-02-08T11:19:01.888Z,36.95
2019-02-08T11:21:31.305Z,35.38
2019-02-08T11:24:00.671Z,36.98
2019-02-08T11:26:30.129Z,36.42
2019-02-08T11:28:59.644Z,40.45
2019-02-08T11:31:29.008Z,40.40
2019-02-08T11:33:58.393Z,37.10
2019-02-08T11:36:28.871Z,36.63
2019-02-08T11:38:58.255Z,34.92
2019-02-08T11:41:27.692Z,31.42
2019-02-08T11:43:57.117Z,34.08
2019-02-08T11:46:26.463Z,31.15
2019-02-08T11:48:55.898Z,35.25
2019-02-08T11:51:25.403Z,33.08
2019-02-08T11:53:54.772Z,33.95
2019-02-08T11:56:29.851Z,36.10
2019-02-08T11:58:55.216Z,35.00
2019-02-08T12:01:24.593Z,33.63
2019-02-08T12:03:53.956Z,34.25
2019-02-08T12:06:24.103Z,34.25
2019-02-08T12:08:53.589Z,33.90
2019-02-08T12:11:22.953Z,32.83
2019-02-08T12:13:52.413Z,32.93
2019-02-08T12:16:22.361Z,33.58
2019-02-08T12:18:51.745Z,33.58
2019-02-08T12:21:21.209Z,33.88
2019-02-08T12:23:50.581Z,31.87
2019-02-08T12:26:19.962Z,33.60
2019-02-08T12:28:49.752Z,32.98
2019-02-08T12:31:19.115Z,32.13
2019-02-08T12:33:48.476Z,32.70
2019-02-08T12:36:17.893Z,33.38
2019-02-08T12:38:48.326Z,33.67
2019-02-08T12:41:17.683Z,31.00
2019-02-08T12:43:47.084Z,30.20
2019-02-08T12:46:16.437Z,29.52
2019-02-08T12:48:45.804Z,34.75
2019-02-08T12:51:15.558Z,30.88
2019-02-08T12:53:44.934Z,31.95
2019-02-08T12:56:14.324Z,32.20
2019-02-08T12:58:43.741Z,31.40
2019-02-08T13:01:13.105Z,31.55
2019-02-08T13:03:42.487Z,32.70
2019-02-08T13:06:11.891Z,32.33
2019-02-08T13:08:41.274Z,32.42
2019-02-08T13:11:10.645Z,32.53
2019-02-08T13:13:40.048Z,29.87
2019-02-08T13:16:09.407Z,31.00
2019-02-08T13:18:38.770Z,32.90
2019-02-08T13:21:08.182Z,31.35
2019-02-08T13:23:37.557Z,31.07
2019-02-08T13:26:06.923Z,30.15
2019-02-08T13:28:36.368Z,31.00
2019-02-08T13:31:05.718Z,32.10
2019-02-08T13:33:35.087Z,28.87
2019-02-08T13:36:07.128Z,29.95
2019-02-08T13:38:36.505Z,30.37
2019-02-08T13:41:05.858Z,29.50
2019-02-08T13:43:35.243Z,29.63
2019-02-08T13:46:04.626Z,28.55
2019-02-08T13:48:33.991Z,29.92
2019-02-08T13:51:03.418Z,30.92
2019-02-08T13:53:32.783Z,34.25
2019-02-08T13:56:02.166Z,29.63
2019-02-08T13:58:31.596Z,28.73
2019-02-08T14:01:00.978Z,29.15
2019-02-08T14:03:30.762Z,29.23
2019-02-08T14:06:00.171Z,30.48
2019-02-08T14:08:29.530Z,30.57
2019-02-08T14:10:58.907Z,28.00
2019-02-08T14:13:28.340Z,28.23
2019-02-08T14:15:57.701Z,25.80
2019-02-08T14:18:27.086Z,26.02
2019-02-08T14:20:56.497Z,28.80
2019-02-08T14:23:25.880Z,25.57
2019-02-08T14:25:55.254Z,27.02
2019-02-08T14:28:24.724Z,27.13
2019-02-08T14:30:54.093Z,27.67
2019-02-08T14:33:23.467Z,27.52
2019-02-08T14:35:52.913Z,26.85
2019-02-08T14:38:22.314Z,26.82
2019-02-08T14:40:51.653Z,28.65
2019-02-08T14:43:21.061Z,30.30
2019-02-08T14:45:50.436Z,27.13
2019-02-08T14:48:19.822Z,27.30
2019-02-08T14:50:49.240Z,26.73
2019-02-08T14:53:18.610Z,31.23
2019-02-08T14:55:47.988Z,27.48
2019-02-08T14:58:17.459Z,25.62
2019-02-08T15:00:46.831Z,27.98
2019-02-08T15:03:16.181Z,25.75
2019-02-08T15:05:45.688Z,28.62
2019-02-08T15:08:16.728Z,25.97
2019-02-08T15:10:51.462Z,26.62
2019-02-08T15:13:20.833Z,27.35
2019-02-08T15:15:50.291Z,26.80
2019-02-08T15:18:19.697Z,27.42
2019-02-08T15:20:49.063Z,26.23
2019-02-08T15:23:18.443Z,28.25
2019-02-08T15:25:47.845Z,27.48
2019-02-08T15:28:17.207Z,27.30
2019-02-08T15:30:47.031Z,27.50
2019-02-08T15:33:16.453Z,27.75
2019-02-08T15:35:45.839Z,25.72
2019-02-08T15:38:15.203Z,26.07
2019-02-08T15:40:50.390Z,26.80
2019-02-08T15:43:21.215Z,27.58
2019-02-08T15:45:55.781Z,26.10
2019-02-08T15:48:25.267Z,24.27
2019-02-08T15:50:54.654Z,27.15
2019-02-08T15:53:24.123Z,26.85
2019-02-08T15:55:56.892Z,25.52
2019-02-08T15:58:26.343Z,27.27
2019-02-08T16:00:55.712Z,24.90
2019-02-08T16:03:25.099Z,26.62
2019-02-08T16:05:54.503Z,26.05
2019-02-08T16:08:23.896Z,26.25
2019-02-08T16:10:53.261Z,27.50
2019-02-08T16:13:24.110Z,26.57
2019-02-08T16:15:53.478Z,26.52
2019-02-08T16:18:23.501Z,26.85
2019-02-08T16:20:52.958Z,27.00
2019-02-08T16:23:22.343Z,26.68
2019-02-08T16:25:52.041Z,27.20
2019-02-08T16:28:21.475Z,27.13
2019-02-08T16:30:51.219Z,28.20
2019-02-08T16:33:20.595Z,28.20
2019-02-08T16:35:50.012Z,26.80
2019-02-08T16:38:19.389Z,30.12
2019-02-08T16:40:48.807Z,28.38
2019-02-08T16:43:19.887Z,27.20
2019-02-08T16:45:49.349Z,29.32
2019-02-08T16:48:18.721Z,26.50
2019-02-08T16:50:48.154Z,28.42
2019-02-08T16:53:17.531Z,32.80
2019-02-08T16:55:46.900Z,34.70
2019-02-08T16:58:16.368Z,31.70
2019-02-08T17:00:45.726Z,31.55
2019-02-08T17:03:15.167Z,31.15
2019-02-08T17:05:44.650Z,29.27
2019-02-08T17:08:14.006Z,26.50
2019-02-08T17:10:43.383Z,27.35
2019-02-08T17:13:12.805Z,26.82
2019-02-08T17:15:42.171Z,25.90
2019-02-08T17:18:11.534Z,27.15
2019-02-08T17:20:46.919Z,27.60
2019-02-08T17:23:16.292Z,24.98
2019-02-08T17:25:45.682Z,28.87
2019-02-08T17:28:15.481Z,28.15
2019-02-08T17:30:44.831Z,27.82
2019-02-08T17:33:14.224Z,26.35
2019-02-08T17:35:43.621Z,25.80
2019-02-08T17:38:13.397Z,27.15
2019-02-08T17:40:45.786Z,28.45
2019-02-08T17:43:15.158Z,26.77
2019-02-08T17:45:44.547Z,27.73
2019-02-08T17:48:15.687Z,26.62
2019-02-08T17:50:45.043Z,28.23
2019-02-08T17:53:15.504Z,25.50
2019-02-08T17:55:44.966Z,27.73
2019-02-08T17:58:14.350Z,27.30
2019-02-08T18:00:55.508Z,27.17
2019-02-08T18:03:24.934Z,29.00
2019-02-08T18:05:54.298Z,27.27
2019-02-08T18:08:23.736Z,26.52
2019-02-08T18:10:53.090Z,27.67
2019-02-08T18:13:22.526Z,28.40
2019-02-08T18:15:52.353Z,27.62
2019-02-08T18:18:21.727Z,26.07
2019-02-08T18:20:57.058Z,26.23
2019-02-08T18:23:26.811Z,25.12
2019-02-08T18:25:56.188Z,27.07
2019-02-08T18:28:25.631Z,25.95
2019-02-08T18:30:54.994Z,26.60
2019-02-08T18:33:24.359Z,26.57
2019-02-08T18:35:53.761Z,25.40
2019-02-08T18:38:23.142Z,26.27
2019-02-08T18:40:52.500Z,26.23
2019-02-08T18:43:21.909Z,28.17
2019-02-08T18:45:51.294Z,26.40
2019-02-08T18:48:20.646Z,26.93
2019-02-08T18:50:52.509Z,27.22
2019-02-08T18:53:21.880Z,26.17
2019-02-08T18:55:51.237Z,28.27
2019-02-08T18:58:21.028Z,26.60
2019-02-08T19:00:52.903Z,22.45
2019-02-08T19:03:23.532Z,24.75
2019-02-08T19:05:53.525Z,24.85
2019-02-08T19:08:22.907Z,25.37
2019-02-08T19:10:52.284Z,25.35
2019-02-08T19:13:21.753Z,24.60
2019-02-08T19:15:51.141Z,25.27
2019-02-08T19:18:20.503Z,27.40
2019-02-08T19:20:49.905Z,25.30
2019-02-08T19:23:19.270Z,25.82
2019-02-08T19:25:49.718Z,27.10
2019-02-08T19:28:26.128Z,26.10
2019-02-08T19:30:50.174Z,26.75
2019-02-08T19:33:19.574Z,25.68
2019-02-08T19:35:49.004Z,26.48
2019-02-08T19:38:18.382Z,28.70
2019-02-08T19:40:48.396Z,29.40
2019-02-08T19:43:18.076Z,27.85
2019-02-08T19:45:47.437Z,29.60
2019-02-08T19:48:16.819Z,29.25
2019-02-08T19:50:47.939Z,29.95
2019-02-08T19:53:17.327Z,28.20
2019-02-08T19:55:46.701Z,28.90
2019-02-08T19:58:16.108Z,29.32
2019-02-08T20:00:46.438Z,29.82
2019-02-08T20:03:15.818Z,31.73
2019-02-08T20:05:45.331Z,30.43
2019-02-08T20:08:14.799Z,29.50
2019-02-08T20:10:46.943Z,28.27
2019-02-08T20:13:16.470Z,29.25
2019-02-08T20:15:45.820Z,27.02
2019-02-08T20:18:15.419Z,28.50
2019-02-08T20:20:44.800Z,28.35
2019-02-08T20:23:15.253Z,26.55
2019-02-08T20:25:46.277Z,25.88
2019-02-08T20:28:17.711Z,26.05
2019-02-08T20:30:47.122Z,25.82
2019-02-08T20:33:16.859Z,26.02
2019-02-08T20:35:46.221Z,25.05
2019-02-08T20:38:15.681Z,27.25
2019-02-08T20:40:50.091Z,26.97
2019-02-08T20:43:19.544Z,26.52
2019-02-08T20:45:48.927Z,27.48
2019-02-08T20:48:20.177Z,28.90
2019-02-08T20:50:49.709Z,28.60
2019-02-08T20:53:19.189Z,25.88
2019-02-08T20:55:49.574Z,27.77
2019-02-08T20:58:19.922Z,26.30
2019-02-08T21:00:50.452Z,27.02
2019-02-08T21:03:19.841Z,24.63
2019-02-08T21:05:49.280Z,25.30
2019-02-08T21:08:18.863Z,24.07
2019-02-08T21:10:48.259Z,23.32
2019-02-08T21:13:17.644Z,23.32
2019-02-08T21:15:47.398Z,23.75
2019-02-08T21:18:16.754Z,23.92
2019-02-08T21:20:46.699Z,27.07
2019-02-08T21:23:16.216Z,24.55
2019-02-08T21:25:52.161Z,26.30
2019-02-08T21:28:16.602Z,23.73
2019-02-08T21:30:46.025Z,25.95
2019-02-08T21:33:15.763Z,24.30
2019-02-08T21:35:45.135Z,22.93
2019-02-08T21:38:14.554Z,23.07
2019-02-08T21:40:43.920Z,21.80
2019-02-08T21:43:13.289Z,22.60
2019-02-08T21:45:43.940Z,21.77
2019-02-08T21:48:13.966Z,22.32
2019-02-08T21:50:43.336Z,21.68
2019-02-08T21:53:12.856Z,23.52
2019-02-08T21:55:42.216Z,25.48
2019-02-08T21:58:11.641Z,26.27
2019-02-08T22:00:42.665Z,26.45
2019-02-08T22:03:12.115Z,25.40
2019-02-08T22:05:53.442Z,24.87
2019-02-08T22:08:22.866Z,23.52
2019-02-08T22:10:52.256Z,26.00
2019-02-08T22:13:21.658Z,22.90
2019-02-08T22:15:51.115Z,22.15
2019-02-08T22:18:20.489Z,23.22
2019-02-08T22:20:49.927Z,25.57
2019-02-08T22:23:19.298Z,24.00
2019-02-08T22:25:48.679Z,23.27
2019-02-08T22:28:18.080Z,22.22
2019-02-08T22:30:47.471Z,21.57
2019-02-08T22:33:16.858Z,22.62
2019-02-08T22:35:46.333Z,20.85
2019-02-08T22:38:15.707Z,22.07
2019-02-08T22:40:46.070Z,22.48
2019-02-08T22:43:16.816Z,21.73
2019-02-08T22:45:46.201Z,20.80
2019-02-08T22:48:15.571Z,21.55
2019-02-08T22:50:44.994Z,21.77
2019-02-08T22:53:14.374Z,21.33
2019-02-08T22:55:43.743Z,21.93
2019-02-08T22:58:13.553Z,22.17
2019-02-08T23:00:55.213Z,23.22
2019-02-08T23:03:25.151Z,25.92
2019-02-08T23:05:55.879Z,24.45
2019-02-08T23:08:25.271Z,25.10
2019-02-08T23:10:54.705Z,24.37
2019-02-08T23:13:24.077Z,24.95
2019-02-08T23:15:53.803Z,25.55
2019-02-08T23:18:23.206Z,26.15
2019-02-08T23:20:53.021Z,28.02
2019-02-08T23:23:22.392Z,32.67
2019-02-08T23:25:51.822Z,31.65
2019-02-08T23:28:21.510Z,33.48
2019-02-08T23:30:50.890Z,25.00
2019-02-08T23:33:20.659Z,27.95
2019-02-08T23:35:50.027Z,27.10
2019-02-08T23:38:19.403Z,27.22
2019-02-08T23:40:48.810Z,25.82
2019-02-08T23:43:18.581Z,23.87
2019-02-08T23:45:47.996Z,22.70
2019-02-08T23:48:17.452Z,22.45
2019-02-08T23:50:46.839Z,22.17
2019-02-08T23:53:16.210Z,23.77
2019-02-08T23:55:45.638Z,23.83
2019-02-08T23:58:15.408Z,22.42
